sensor_id;sensor_type;location;lat;lon;timestamp;P1;durP1;ratioP1;P2;durP2;ratioP2
63953;SDS011;50128;52.094;5.232;2023-02-01T00:01:24;21.8;;;5.6;;
63953;SDS011;50128;52.094;5.232;2023-02-01T00:03:00;19.8;;;4.8;;
63953;SDS011;50128;52.094;5.232;2023-02-01T00:06:12;16.5;;;4.61;;
63953;SDS011;50128;52.094;5.232;2023-02-01T00:07:49;18.41;;;4.61;;
63953;SDS011;50128;52.094;5.232;2023-02-01T00:09:26;18.2;;;4.91;;
63953;SDS011;50128;52.094;5.232;2023-02-01T00:11:03;18.61;;;5.0;;
63953;SDS011;50128;52.094;5.232;2023-02-01T00:14:17;20.5;;;4.91;;
63953;SDS011;50128;52.094;5.232;2023-02-01T00:15:54;19.91;;;5.11;;
63953;SDS011;50128;52.094;5.232;2023-02-01T00:17:30;19.2;;;5.2;;
63953;SDS011;50128;52.094;5.232;2023-02-01T00:20:47;17.41;;;5.2;;
63953;SDS011;50128;52.094;5.232;2023-02-01T00:22:24;23.2;;;5.3;;
63953;SDS011;50128;52.094;5.232;2023-02-01T00:24:01;22.6;;;5.6;;
63953;SDS011;50128;52.094;5.232;2023-02-01T00:25:38;23.7;;;5.5;;
63953;SDS011;50128;52.094;5.232;2023-02-01T00:28:53;17.11;;;5.0;;
63953;SDS011;50128;52.094;5.232;2023-02-01T00:30:29;22.3;;;5.5;;
63953;SDS011;50128;52.094;5.232;2023-02-01T00:32:05;20.8;;;5.2;;
63953;SDS011;50128;52.094;5.232;2023-02-01T00:35:17;19.61;;;5.3;;
63953;SDS011;50128;52.094;5.232;2023-02-01T00:36:54;24.2;;;5.7;;
63953;SDS011;50128;52.094;5.232;2023-02-01T00:38:30;18.8;;;5.11;;
63953;SDS011;50128;52.094;5.232;2023-02-01T00:41:46;18.3;;;5.0;;
63953;SDS011;50128;52.094;5.232;2023-02-01T00:43:22;21.3;;;5.0;;
63953;SDS011;50128;52.094;5.232;2023-02-01T00:44:58;21.9;;;5.8;;
63953;SDS011;50128;52.094;5.232;2023-02-01T00:46:34;20.0;;;5.11;;
63953;SDS011;50128;52.094;5.232;2023-02-01T00:49:48;19.11;;;4.91;;
63953;SDS011;50128;52.094;5.232;2023-02-01T00:51:24;17.5;;;5.3;;
63953;SDS011;50128;52.094;5.232;2023-02-01T00:53:03;17.91;;;4.61;;
63953;SDS011;50128;52.094;5.232;2023-02-01T00:56:15;19.61;;;5.7;;
63953;SDS011;50128;52.094;5.232;2023-02-01T00:57:52;19.7;;;5.2;;
63953;SDS011;50128;52.094;5.232;2023-02-01T00:59:28;18.7;;;4.7;;
63953;SDS011;50128;52.094;5.232;2023-02-01T01:02:43;20.3;;;5.3;;
63953;SDS011;50128;52.094;5.232;2023-02-01T01:04:20;20.41;;;5.0;;
63953;SDS011;50128;52.094;5.232;2023-02-01T01:05:56;21.8;;;5.6;;
63953;SDS011;50128;52.094;5.232;2023-02-01T01:07:33;20.3;;;5.4;;
63953;SDS011;50128;52.094;5.232;2023-02-01T01:10:45;20.0;;;4.91;;
63953;SDS011;50128;52.094;5.232;2023-02-01T01:12:21;20.2;;;5.2;;
63953;SDS011;50128;52.094;5.232;2023-02-01T01:13:57;17.91;;;5.0;;
63953;SDS011;50128;52.094;5.232;2023-02-01T01:17:13;19.7;;;5.11;;
63953;SDS011;50128;52.094;5.232;2023-02-01T01:18:49;19.3;;;5.11;;
63953;SDS011;50128;52.094;5.232;2023-02-01T01:20:27;20.8;;;5.11;;
63953;SDS011;50128;52.094;5.232;2023-02-01T01:22:03;18.7;;;5.11;;
63953;SDS011;50128;52.094;5.232;2023-02-01T01:25:17;19.3;;;5.0;;
63953;SDS011;50128;52.094;5.232;2023-02-01T01:26:53;18.91;;;5.11;;
63953;SDS011;50128;52.094;5.232;2023-02-01T01:28:29;21.4;;;5.4;;
63953;SDS011;50128;52.094;5.232;2023-02-01T01:31:42;21.2;;;5.0;;
63953;SDS011;50128;52.094;5.232;2023-02-01T01:33:19;24.3;;;5.9;;
63953;SDS011;50128;52.094;5.232;2023-02-01T01:34:55;19.0;;;5.0;;
63953;SDS011;50128;52.094;5.232;2023-02-01T01:38:08;19.41;;;5.11;;
63953;SDS011;50128;52.094;5.232;2023-02-01T01:41:22;17.0;;;5.3;;
63953;SDS011;50128;52.094;5.232;2023-02-01T01:43:00;17.8;;;5.3;;
63953;SDS011;50128;52.094;5.232;2023-02-01T01:48:33;18.41;;;4.61;;
63953;SDS011;50128;52.094;5.232;2023-02-01T01:50:12;20.7;;;5.5;;
63953;SDS011;50128;52.094;5.232;2023-02-01T01:51:54;19.7;;;4.91;;
63953;SDS011;50128;52.094;5.232;2023-02-01T01:53:38;18.2;;;4.5;;
63953;SDS011;50128;52.094;5.232;2023-02-01T01:57:01;17.5;;;4.8;;
63953;SDS011;50128;52.094;5.232;2023-02-01T01:58:42;24.2;;;5.5;;
63953;SDS011;50128;52.094;5.232;2023-02-01T02:00:19;22.2;;;5.7;;
63953;SDS011;50128;52.094;5.232;2023-02-01T02:01:57;21.1;;;6.0;;
63953;SDS011;50128;52.094;5.232;2023-02-01T02:05:14;20.11;;;5.3;;
63953;SDS011;50128;52.094;5.232;2023-02-01T02:06:56;17.41;;;5.11;;
63953;SDS011;50128;52.094;5.232;2023-02-01T02:08:37;22.5;;;5.4;;
63953;SDS011;50128;52.094;5.232;2023-02-01T02:10:14;18.7;;;5.2;;
63953;SDS011;50128;52.094;5.232;2023-02-01T02:13:29;24.2;;;6.1;;
63953;SDS011;50128;52.094;5.232;2023-02-01T02:15:11;18.11;;;5.11;;
63953;SDS011;50128;52.094;5.232;2023-02-01T02:16:54;19.11;;;5.11;;
63953;SDS011;50128;52.094;5.232;2023-02-01T02:18:57;16.2;;;5.0;;
63953;SDS011;50128;52.094;5.232;2023-02-01T02:20:53;18.7;;;5.11;;
63953;SDS011;50128;52.094;5.232;2023-02-01T02:22:51;24.7;;;6.0;;
63953;SDS011;50128;52.094;5.232;2023-02-01T02:26:36;21.7;;;5.4;;
63953;SDS011;50128;52.094;5.232;2023-02-01T02:28:42;20.0;;;5.3;;
63953;SDS011;50128;52.094;5.232;2023-02-01T02:32:13;22.8;;;5.9;;
63953;SDS011;50128;52.094;5.232;2023-02-01T02:34:51;25.2;;;6.3;;
63953;SDS011;50128;52.094;5.232;2023-02-01T02:36:37;18.7;;;5.2;;
63953;SDS011;50128;52.094;5.232;2023-02-01T02:38:22;18.0;;;5.11;;
63953;SDS011;50128;52.094;5.232;2023-02-01T02:40:11;20.3;;;5.5;;
63953;SDS011;50128;52.094;5.232;2023-02-01T02:47:27;21.8;;;5.6;;
63953;SDS011;50128;52.094;5.232;2023-02-01T02:49:40;21.8;;;5.6;;
63953;SDS011;50128;52.094;5.232;2023-02-01T02:55:36;21.7;;;5.4;;
63953;SDS011;50128;52.094;5.232;2023-02-01T03:05:36;22.4;;;6.0;;
63953;SDS011;50128;52.094;5.232;2023-02-01T03:07:45;22.2;;;5.7;;
63953;SDS011;50128;52.094;5.232;2023-02-01T03:09:36;21.9;;;5.11;;
63953;SDS011;50128;52.094;5.232;2023-02-01T03:11:15;19.61;;;5.9;;
63953;SDS011;50128;52.094;5.232;2023-02-01T03:14:40;20.3;;;4.7;;
63953;SDS011;50128;52.094;5.232;2023-02-01T03:16:23;23.8;;;5.9;;
63953;SDS011;50128;52.094;5.232;2023-02-01T03:18:04;19.41;;;4.8;;
63953;SDS011;50128;52.094;5.232;2023-02-01T03:19:50;20.3;;;5.5;;
63953;SDS011;50128;52.094;5.232;2023-02-01T03:21:29;23.3;;;5.6;;
63953;SDS011;50128;52.094;5.232;2023-02-01T03:24:56;20.41;;;5.8;;
63953;SDS011;50128;52.094;5.232;2023-02-01T03:26:41;21.6;;;5.5;;
63953;SDS011;50128;52.094;5.232;2023-02-01T03:28:24;21.6;;;5.8;;
63953;SDS011;50128;52.094;5.232;2023-02-01T03:30:07;20.6;;;5.3;;
63953;SDS011;50128;52.094;5.232;2023-02-01T03:31:53;18.7;;;5.7;;
63953;SDS011;50128;52.094;5.232;2023-02-01T03:35:07;23.7;;;6.1;;
63953;SDS011;50128;52.094;5.232;2023-02-01T03:36:46;18.61;;;4.91;;
63953;SDS011;50128;52.094;5.232;2023-02-01T03:38:26;19.41;;;5.0;;
63953;SDS011;50128;52.094;5.232;2023-02-01T03:41:47;21.2;;;5.5;;
63953;SDS011;50128;52.094;5.232;2023-02-01T03:43:27;20.0;;;5.0;;
63953;SDS011;50128;52.094;5.232;2023-02-01T03:45:11;18.5;;;4.91;;
63953;SDS011;50128;52.094;5.232;2023-02-01T03:46:54;19.7;;;5.4;;
63953;SDS011;50128;52.094;5.232;2023-02-01T03:48:35;20.3;;;5.3;;
63953;SDS011;50128;52.094;5.232;2023-02-01T03:51:55;20.6;;;5.7;;
63953;SDS011;50128;52.094;5.232;2023-02-01T03:53:36;21.9;;;5.6;;
63953;SDS011;50128;52.094;5.232;2023-02-01T03:55:18;20.2;;;4.91;;
63953;SDS011;50128;52.094;5.232;2023-02-01T03:56:58;23.1;;;5.2;;
63953;SDS011;50128;52.094;5.232;2023-02-01T04:00:17;23.8;;;5.9;;
63953;SDS011;50128;52.094;5.232;2023-02-01T04:01:59;21.2;;;5.4;;
63953;SDS011;50128;52.094;5.232;2023-02-01T04:03:35;24.9;;;6.1;;
63953;SDS011;50128;52.094;5.232;2023-02-01T04:06:48;18.41;;;5.11;;
63953;SDS011;50128;52.094;5.232;2023-02-01T04:08:25;18.41;;;4.91;;
63953;SDS011;50128;52.094;5.232;2023-02-01T04:10:01;20.2;;;5.5;;
63953;SDS011;50128;52.094;5.232;2023-02-01T04:11:38;17.7;;;5.0;;
63953;SDS011;50128;52.094;5.232;2023-02-01T04:16:27;21.8;;;5.5;;
63953;SDS011;50128;52.094;5.232;2023-02-01T04:18:03;20.6;;;5.5;;
63953;SDS011;50128;52.094;5.232;2023-02-01T04:21:16;22.3;;;5.0;;
63953;SDS011;50128;52.094;5.232;2023-02-01T04:22:53;16.11;;;4.8;;
63953;SDS011;50128;52.094;5.232;2023-02-01T04:24:30;19.11;;;5.7;;
63953;SDS011;50128;52.094;5.232;2023-02-01T04:27:43;19.5;;;5.11;;
63953;SDS011;50128;52.094;5.232;2023-02-01T04:29:19;23.3;;;6.0;;
63953;SDS011;50128;52.094;5.232;2023-02-01T04:30:55;19.61;;;5.0;;
63953;SDS011;50128;52.094;5.232;2023-02-01T04:32:32;19.8;;;4.8;;
63953;SDS011;50128;52.094;5.232;2023-02-01T04:35:45;16.9;;;5.0;;
63953;SDS011;50128;52.094;5.232;2023-02-01T04:37:21;18.41;;;5.0;;
63953;SDS011;50128;52.094;5.232;2023-02-01T04:38:57;20.0;;;5.0;;
63953;SDS011;50128;52.094;5.232;2023-02-01T04:42:09;19.2;;;4.91;;
63953;SDS011;50128;52.094;5.232;2023-02-01T04:43:45;19.11;;;4.41;;
63953;SDS011;50128;52.094;5.232;2023-02-01T04:45:22;17.2;;;4.91;;
63953;SDS011;50128;52.094;5.232;2023-02-01T04:48:34;18.5;;;5.11;;
63953;SDS011;50128;52.094;5.232;2023-02-01T04:50:11;17.2;;;4.91;;
63953;SDS011;50128;52.094;5.232;2023-02-01T04:51:47;22.3;;;5.5;;
63953;SDS011;50128;52.094;5.232;2023-02-01T04:53:24;21.5;;;5.9;;
63953;SDS011;50128;52.094;5.232;2023-02-01T04:56:39;23.3;;;5.9;;
63953;SDS011;50128;52.094;5.232;2023-02-01T04:58:16;18.91;;;4.8;;
63953;SDS011;50128;52.094;5.232;2023-02-01T04:59:52;20.6;;;5.5;;
63953;SDS011;50128;52.094;5.232;2023-02-01T05:03:06;21.0;;;6.0;;
63953;SDS011;50128;52.094;5.232;2023-02-01T05:04:43;20.6;;;5.2;;
63953;SDS011;50128;52.094;5.232;2023-02-01T05:06:19;20.0;;;5.4;;
63953;SDS011;50128;52.094;5.232;2023-02-01T05:09:31;17.8;;;5.8;;
63953;SDS011;50128;52.094;5.232;2023-02-01T05:13:47;18.7;;;5.5;;
63953;SDS011;50128;52.094;5.232;2023-02-01T05:15:23;19.5;;;5.3;;
63953;SDS011;50128;52.094;5.232;2023-02-01T05:16:59;15.3;;;4.61;;
63953;SDS011;50128;52.094;5.232;2023-02-01T05:18:35;17.11;;;4.91;;
63953;SDS011;50128;52.094;5.232;2023-02-01T05:21:48;20.41;;;5.4;;
63953;SDS011;50128;52.094;5.232;2023-02-01T05:23:25;18.7;;;5.3;;
63953;SDS011;50128;52.094;5.232;2023-02-01T05:25:01;21.0;;;6.1;;
63953;SDS011;50128;52.094;5.232;2023-02-01T05:28:15;22.7;;;5.5;;
63953;SDS011;50128;52.094;5.232;2023-02-01T05:29:51;20.7;;;5.11;;
63953;SDS011;50128;52.094;5.232;2023-02-01T05:34:40;20.8;;;5.5;;
63953;SDS011;50128;52.094;5.232;2023-02-01T05:36:16;17.3;;;4.7;;
63953;SDS011;50128;52.094;5.232;2023-02-01T05:37:53;20.11;;;5.5;;
63953;SDS011;50128;52.094;5.232;2023-02-01T05:39:29;25.5;;;5.6;;
63953;SDS011;50128;52.094;5.232;2023-02-01T05:42:41;19.91;;;6.1;;
63953;SDS011;50128;52.094;5.232;2023-02-01T05:44:17;17.2;;;5.11;;
63953;SDS011;50128;52.094;5.232;2023-02-01T05:45:53;19.5;;;5.7;;
63953;SDS011;50128;52.094;5.232;2023-02-01T05:49:06;20.41;;;5.5;;
63953;SDS011;50128;52.094;5.232;2023-02-01T05:50:42;18.61;;;5.2;;
63953;SDS011;50128;52.094;5.232;2023-02-01T05:52:19;20.11;;;5.2;;
63953;SDS011;50128;52.094;5.232;2023-02-01T05:55:31;17.41;;;5.3;;
63953;SDS011;50128;52.094;5.232;2023-02-01T05:57:08;20.8;;;5.5;;
63953;SDS011;50128;52.094;5.232;2023-02-01T05:58:44;17.8;;;5.0;;
63953;SDS011;50128;52.094;5.232;2023-02-01T06:00:21;22.3;;;5.3;;
63953;SDS011;50128;52.094;5.232;2023-02-01T06:03:35;18.91;;;5.6;;
63953;SDS011;50128;52.094;5.232;2023-02-01T06:05:12;18.3;;;5.7;;
63953;SDS011;50128;52.094;5.232;2023-02-01T06:06:50;18.91;;;5.7;;
63953;SDS011;50128;52.094;5.232;2023-02-01T06:10:02;20.6;;;5.6;;
63953;SDS011;50128;52.094;5.232;2023-02-01T06:11:41;19.41;;;5.11;;
63953;SDS011;50128;52.094;5.232;2023-02-01T06:13:17;20.41;;;5.4;;
63953;SDS011;50128;52.094;5.232;2023-02-01T06:16:31;18.8;;;4.8;;
63953;SDS011;50128;52.094;5.232;2023-02-01T06:18:07;23.5;;;6.4;;
63953;SDS011;50128;52.094;5.232;2023-02-01T06:19:44;21.1;;;5.4;;
63953;SDS011;50128;52.094;5.232;2023-02-01T06:21:23;20.7;;;5.2;;
63953;SDS011;50128;52.094;5.232;2023-02-01T06:24:35;19.7;;;5.2;;
63953;SDS011;50128;52.094;5.232;2023-02-01T06:26:11;18.3;;;5.0;;
63953;SDS011;50128;52.094;5.232;2023-02-01T06:27:48;22.8;;;6.2;;
63953;SDS011;50128;52.094;5.232;2023-02-01T06:31:03;20.9;;;5.7;;
63953;SDS011;50128;52.094;5.232;2023-02-01T06:32:41;24.7;;;5.6;;
63953;SDS011;50128;52.094;5.232;2023-02-01T06:34:18;19.41;;;5.11;;
63953;SDS011;50128;52.094;5.232;2023-02-01T06:35:56;20.11;;;5.4;;
63953;SDS011;50128;52.094;5.232;2023-02-01T06:39:15;22.0;;;5.6;;
63953;SDS011;50128;52.094;5.232;2023-02-01T06:40:52;22.1;;;5.3;;
63953;SDS011;50128;52.094;5.232;2023-02-01T06:42:30;19.61;;;5.11;;
63953;SDS011;50128;52.094;5.232;2023-02-01T06:45:42;21.1;;;5.6;;
63953;SDS011;50128;52.094;5.232;2023-02-01T06:47:18;19.5;;;5.4;;
63953;SDS011;50128;52.094;5.232;2023-02-01T06:48:54;19.7;;;5.2;;
63953;SDS011;50128;52.094;5.232;2023-02-01T06:50:30;20.2;;;5.2;;
63953;SDS011;50128;52.094;5.232;2023-02-01T06:53:42;21.0;;;5.2;;
63953;SDS011;50128;52.094;5.232;2023-02-01T06:55:18;21.0;;;5.2;;
63953;SDS011;50128;52.094;5.232;2023-02-01T06:56:55;22.6;;;5.6;;
63953;SDS011;50128;52.094;5.232;2023-02-01T07:00:09;22.5;;;5.3;;
63953;SDS011;50128;52.094;5.232;2023-02-01T07:01:46;22.0;;;5.2;;
63953;SDS011;50128;52.094;5.232;2023-02-01T07:03:22;19.41;;;5.2;;
63953;SDS011;50128;52.094;5.232;2023-02-01T07:06:34;21.5;;;5.6;;
63953;SDS011;50128;52.094;5.232;2023-02-01T07:08:11;19.7;;;5.7;;
63953;SDS011;50128;52.094;5.232;2023-02-01T07:09:46;20.0;;;5.9;;
63953;SDS011;50128;52.094;5.232;2023-02-01T07:13:00;18.2;;;5.11;;
63953;SDS011;50128;52.094;5.232;2023-02-01T07:14:36;20.6;;;5.11;;
63953;SDS011;50128;52.094;5.232;2023-02-01T07:16:13;21.0;;;5.3;;
63953;SDS011;50128;52.094;5.232;2023-02-01T07:17:53;21.0;;;5.3;;
63953;SDS011;50128;52.094;5.232;2023-02-01T07:21:06;23.2;;;5.9;;
63953;SDS011;50128;52.094;5.232;2023-02-01T07:22:43;22.8;;;5.4;;
63953;SDS011;50128;52.094;5.232;2023-02-01T07:24:21;21.0;;;5.3;;
63953;SDS011;50128;52.094;5.232;2023-02-01T07:27:37;21.5;;;5.2;;
63953;SDS011;50128;52.094;5.232;2023-02-01T07:29:13;21.3;;;5.4;;
63953;SDS011;50128;52.094;5.232;2023-02-01T07:30:50;17.11;;;5.2;;
63953;SDS011;50128;52.094;5.232;2023-02-01T07:32:27;17.3;;;5.0;;
63953;SDS011;50128;52.094;5.232;2023-02-01T07:35:41;17.61;;;5.11;;
63953;SDS011;50128;52.094;5.232;2023-02-01T07:37:17;17.3;;;4.8;;
63953;SDS011;50128;52.094;5.232;2023-02-01T07:38:54;18.3;;;5.4;;
63953;SDS011;50128;52.094;5.232;2023-02-01T07:42:06;20.8;;;5.5;;
63953;SDS011;50128;52.094;5.232;2023-02-01T07:43:42;18.41;;;4.91;;
63953;SDS011;50128;52.094;5.232;2023-02-01T07:45:20;18.5;;;5.11;;
63953;SDS011;50128;52.094;5.232;2023-02-01T07:48:33;18.7;;;4.61;;
63953;SDS011;50128;52.094;5.232;2023-02-01T07:50:10;15.5;;;5.11;;
63953;SDS011;50128;52.094;5.232;2023-02-01T07:51:46;19.41;;;5.0;;
63953;SDS011;50128;52.094;5.232;2023-02-01T07:53:22;17.91;;;5.0;;
63953;SDS011;50128;52.094;5.232;2023-02-01T07:56:34;19.8;;;5.4;;
63953;SDS011;50128;52.094;5.232;2023-02-01T07:58:11;20.2;;;5.11;;
63953;SDS011;50128;52.094;5.232;2023-02-01T08:01:20;15.1;;;4.8;;
63953;SDS011;50128;52.094;5.232;2023-02-01T08:03:20;18.7;;;5.5;;
63953;SDS011;50128;52.094;5.232;2023-02-01T08:04:57;17.91;;;5.4;;
63953;SDS011;50128;52.094;5.232;2023-02-01T08:06:34;20.5;;;5.3;;
63953;SDS011;50128;52.094;5.232;2023-02-01T08:08:10;19.7;;;5.0;;
63953;SDS011;50128;52.094;5.232;2023-02-01T08:11:23;19.2;;;5.2;;
63953;SDS011;50128;52.094;5.232;2023-02-01T08:13:00;17.41;;;4.7;;
63953;SDS011;50128;52.094;5.232;2023-02-01T08:14:40;16.8;;;4.0;;
63953;SDS011;50128;52.094;5.232;2023-02-01T08:16:18;20.9;;;5.3;;
63953;SDS011;50128;52.094;5.232;2023-02-01T08:19:32;19.8;;;5.2;;
63953;SDS011;50128;52.094;5.232;2023-02-01T08:21:09;19.8;;;5.7;;
63953;SDS011;50128;52.094;5.232;2023-02-01T08:22:48;18.0;;;4.41;;
63953;SDS011;50128;52.094;5.232;2023-02-01T08:26:05;24.5;;;5.7;;
63953;SDS011;50128;52.094;5.232;2023-02-01T08:27:47;19.61;;;5.4;;
63953;SDS011;50128;52.094;5.232;2023-02-01T08:29:24;17.7;;;4.91;;
63953;SDS011;50128;52.094;5.232;2023-02-01T08:31:03;16.7;;;4.61;;
63953;SDS011;50128;52.094;5.232;2023-02-01T08:34:17;15.8;;;4.5;;
63953;SDS011;50128;52.094;5.232;2023-02-01T08:35:53;19.3;;;4.91;;
63953;SDS011;50128;52.094;5.232;2023-02-01T08:37:28;19.2;;;5.2;;
63953;SDS011;50128;52.094;5.232;2023-02-01T08:40:46;18.8;;;4.61;;
63953;SDS011;50128;52.094;5.232;2023-02-01T08:42:54;16.2;;;4.61;;
63953;SDS011;50128;52.094;5.232;2023-02-01T08:44:30;16.8;;;5.3;;
63953;SDS011;50128;52.094;5.232;2023-02-01T08:46:07;18.3;;;5.0;;
63953;SDS011;50128;52.094;5.232;2023-02-01T08:47:46;20.9;;;4.8;;
63953;SDS011;50128;52.094;5.232;2023-02-01T08:51:00;20.11;;;5.0;;
63953;SDS011;50128;52.094;5.232;2023-02-01T08:52:38;19.5;;;5.8;;
63953;SDS011;50128;52.094;5.232;2023-02-01T08:54:14;18.41;;;5.3;;
63953;SDS011;50128;52.094;5.232;2023-02-01T08:57:26;20.8;;;5.5;;
63953;SDS011;50128;52.094;5.232;2023-02-01T08:59:02;18.91;;;5.4;;
63953;SDS011;50128;52.094;5.232;2023-02-01T09:00:39;25.6;;;6.2;;
63953;SDS011;50128;52.094;5.232;2023-02-01T09:03:55;17.5;;;5.0;;
63953;SDS011;50128;52.094;5.232;2023-02-01T09:05:31;20.8;;;4.91;;
63953;SDS011;50128;52.094;5.232;2023-02-01T09:07:07;18.5;;;4.91;;
63953;SDS011;50128;52.094;5.232;2023-02-01T09:08:44;19.5;;;5.11;;
63953;SDS011;50128;52.094;5.232;2023-02-01T09:11:56;21.9;;;5.9;;
63953;SDS011;50128;52.094;5.232;2023-02-01T09:13:33;17.91;;;5.8;;
63953;SDS011;50128;52.094;5.232;2023-02-01T09:15:10;21.1;;;5.6;;
63953;SDS011;50128;52.094;5.232;2023-02-01T09:18:23;23.2;;;5.5;;
63953;SDS011;50128;52.094;5.232;2023-02-01T09:20:00;18.0;;;5.4;;
63953;SDS011;50128;52.094;5.232;2023-02-01T09:21:37;19.7;;;4.91;;
63953;SDS011;50128;52.094;5.232;2023-02-01T09:23:13;15.1;;;4.61;;
63953;SDS011;50128;52.094;5.232;2023-02-01T09:26:27;21.4;;;5.4;;
63953;SDS011;50128;52.094;5.232;2023-02-01T09:28:05;21.6;;;5.6;;
63953;SDS011;50128;52.094;5.232;2023-02-01T09:29:42;18.5;;;4.5;;
63953;SDS011;50128;52.094;5.232;2023-02-01T09:32:55;19.5;;;5.2;;
63953;SDS011;50128;52.094;5.232;2023-02-01T09:34:31;16.8;;;4.91;;
63953;SDS011;50128;52.094;5.232;2023-02-01T09:36:08;16.9;;;5.0;;
63953;SDS011;50128;52.094;5.232;2023-02-01T09:39:21;21.9;;;5.5;;
63953;SDS011;50128;52.094;5.232;2023-02-01T09:40:59;17.5;;;5.2;;
63953;SDS011;50128;52.094;5.232;2023-02-01T09:42:42;18.8;;;6.0;;
63953;SDS011;50128;52.094;5.232;2023-02-01T09:44:52;17.7;;;4.91;;
63953;SDS011;50128;52.094;5.232;2023-02-01T09:47:19;20.2;;;5.3;;
63953;SDS011;50128;52.094;5.232;2023-02-01T09:49:01;21.9;;;6.1;;
63953;SDS011;50128;52.094;5.232;2023-02-01T09:50:52;18.91;;;5.0;;
63953;SDS011;50128;52.094;5.232;2023-02-01T09:52:36;20.9;;;5.4;;
63953;SDS011;50128;52.094;5.232;2023-02-01T09:56:18;20.8;;;5.0;;
63953;SDS011;50128;52.094;5.232;2023-02-01T09:58:00;21.4;;;4.91;;
63953;SDS011;50128;52.094;5.232;2023-02-01T09:59:42;24.3;;;5.7;;
63953;SDS011;50128;52.094;5.232;2023-02-01T10:01:23;21.7;;;5.5;;
63953;SDS011;50128;52.094;5.232;2023-02-01T10:03:02;19.61;;;5.4;;
63953;SDS011;50128;52.094;5.232;2023-02-01T10:06:20;19.3;;;5.11;;
63953;SDS011;50128;52.094;5.232;2023-02-01T10:08:38;19.2;;;4.8;;
63953;SDS011;50128;52.094;5.232;2023-02-01T10:10:35;18.3;;;5.11;;
63953;SDS011;50128;52.094;5.232;2023-02-01T10:12:32;20.41;;;5.11;;
63953;SDS011;50128;52.094;5.232;2023-02-01T10:15:59;22.5;;;5.11;;
63953;SDS011;50128;52.094;5.232;2023-02-01T10:17:51;20.8;;;5.2;;
63953;SDS011;50128;52.094;5.232;2023-02-01T10:19:43;21.1;;;5.11;;
63953;SDS011;50128;52.094;5.232;2023-02-01T10:23:30;22.4;;;5.8;;
63953;SDS011;50128;52.094;5.232;2023-02-01T10:26:16;19.8;;;4.8;;
63953;SDS011;50128;52.094;5.232;2023-02-01T10:29:37;20.11;;;5.2;;
63953;SDS011;50128;52.094;5.232;2023-02-01T10:31:18;20.0;;;5.2;;
63953;SDS011;50128;52.094;5.232;2023-02-01T10:33:01;24.0;;;5.6;;
63953;SDS011;50128;52.094;5.232;2023-02-01T10:34:55;21.0;;;5.4;;
63953;SDS011;50128;52.094;5.232;2023-02-01T10:36:36;21.0;;;5.2;;
63953;SDS011;50128;52.094;5.232;2023-02-01T10:40:03;20.0;;;4.7;;
63953;SDS011;50128;52.094;5.232;2023-02-01T10:41:56;17.5;;;4.91;;
63953;SDS011;50128;52.094;5.232;2023-02-01T10:43:33;20.6;;;5.9;;
63953;SDS011;50128;52.094;5.232;2023-02-01T10:45:12;20.7;;;5.11;;
63953;SDS011;50128;52.094;5.232;2023-02-01T10:48:29;19.41;;;4.8;;
63953;SDS011;50128;52.094;5.232;2023-02-01T10:50:11;20.7;;;5.0;;
63953;SDS011;50128;52.094;5.232;2023-02-01T10:51:55;21.3;;;5.5;;
63953;SDS011;50128;52.094;5.232;2023-02-01T10:53:39;19.61;;;5.4;;
63953;SDS011;50128;52.094;5.232;2023-02-01T10:55:30;17.41;;;4.91;;
63953;SDS011;50128;52.094;5.232;2023-02-01T10:59:00;18.91;;;5.11;;
63953;SDS011;50128;52.094;5.232;2023-02-01T11:00:41;19.11;;;5.0;;
63953;SDS011;50128;52.094;5.232;2023-02-01T11:02:24;19.41;;;5.9;;
63953;SDS011;50128;52.094;5.232;2023-02-01T11:04:04;21.8;;;6.5;;
63953;SDS011;50128;52.094;5.232;2023-02-01T11:05:45;25.9;;;8.2;;
63953;SDS011;50128;52.094;5.232;2023-02-01T11:09:09;26.0;;;8.71;;
63953;SDS011;50128;52.094;5.232;2023-02-01T11:10:56;28.6;;;9.1;;
63953;SDS011;50128;52.094;5.232;2023-02-01T11:12:35;27.6;;;9.71;;
63953;SDS011;50128;52.094;5.232;2023-02-01T11:14:14;23.1;;;7.9;;
63953;SDS011;50128;52.094;5.232;2023-02-01T11:17:33;25.0;;;8.2;;
63953;SDS011;50128;52.094;5.232;2023-02-01T11:19:15;23.8;;;8.31;;
63953;SDS011;50128;52.094;5.232;2023-02-01T11:20:53;26.3;;;7.5;;
63953;SDS011;50128;52.094;5.232;2023-02-01T11:22:30;24.4;;;8.0;;
63953;SDS011;50128;52.094;5.232;2023-02-01T11:26:00;25.0;;;6.7;;
63953;SDS011;50128;52.094;5.232;2023-02-01T11:27:46;23.8;;;8.5;;
63953;SDS011;50128;52.094;5.232;2023-02-01T11:29:30;24.8;;;6.8;;
63953;SDS011;50128;52.094;5.232;2023-02-01T11:31:12;20.0;;;5.9;;
63953;SDS011;50128;52.094;5.232;2023-02-01T11:34:28;18.0;;;5.3;;
63953;SDS011;50128;52.094;5.232;2023-02-01T11:36:14;21.2;;;5.6;;
63953;SDS011;50128;52.094;5.232;2023-02-01T11:37:55;22.3;;;5.4;;
63953;SDS011;50128;52.094;5.232;2023-02-01T11:39:34;20.6;;;5.11;;
63953;SDS011;50128;52.094;5.232;2023-02-01T11:42:53;16.8;;;4.8;;
63953;SDS011;50128;52.094;5.232;2023-02-01T11:44:32;21.0;;;5.4;;
63953;SDS011;50128;52.094;5.232;2023-02-01T11:46:16;18.41;;;4.8;;
63953;SDS011;50128;52.094;5.232;2023-02-01T11:47:55;20.7;;;5.3;;
63953;SDS011;50128;52.094;5.232;2023-02-01T11:51:15;19.11;;;5.11;;
63953;SDS011;50128;52.094;5.232;2023-02-01T11:53:15;21.4;;;5.6;;
63953;SDS011;50128;52.094;5.232;2023-02-01T11:55:06;21.5;;;5.4;;
63953;SDS011;50128;52.094;5.232;2023-02-01T11:57:58;19.8;;;5.3;;
63953;SDS011;50128;52.094;5.232;2023-02-01T11:59:55;19.8;;;5.3;;
63953;SDS011;50128;52.094;5.232;2023-02-01T12:01:54;21.0;;;5.6;;
63953;SDS011;50128;52.094;5.232;2023-02-01T12:03:50;20.7;;;5.9;;
63953;SDS011;50128;52.094;5.232;2023-02-01T12:06:38;19.11;;;5.11;;
63953;SDS011;50128;52.094;5.232;2023-02-01T12:10:49;16.8;;;4.61;;
63953;SDS011;50128;52.094;5.232;2023-02-01T12:12:43;23.3;;;5.5;;
63953;SDS011;50128;52.094;5.232;2023-02-01T12:16:36;15.7;;;4.5;;
63953;SDS011;50128;52.094;5.232;2023-02-01T12:18:27;21.3;;;5.4;;
63953;SDS011;50128;52.094;5.232;2023-02-01T12:20:51;22.8;;;5.6;;
63953;SDS011;50128;52.094;5.232;2023-02-01T12:22:43;21.1;;;5.4;;
63953;SDS011;50128;52.094;5.232;2023-02-01T12:24:37;19.91;;;5.4;;
63953;SDS011;50128;52.094;5.232;2023-02-01T12:26:46;17.11;;;4.61;;
63953;SDS011;50128;52.094;5.232;2023-02-01T12:28:36;16.61;;;4.41;;
63953;SDS011;50128;52.094;5.232;2023-02-01T12:30:39;18.11;;;5.0;;
63953;SDS011;50128;52.094;5.232;2023-02-01T12:32:33;16.11;;;4.2;;
63953;SDS011;50128;52.094;5.232;2023-02-01T12:34:35;18.5;;;5.11;;
63953;SDS011;50128;52.094;5.232;2023-02-01T12:36:32;17.11;;;4.8;;
63953;SDS011;50128;52.094;5.232;2023-02-01T12:38:20;18.7;;;5.2;;
63953;SDS011;50128;52.094;5.232;2023-02-01T12:40:15;20.5;;;5.2;;
63953;SDS011;50128;52.094;5.232;2023-02-01T12:42:13;17.91;;;4.8;;
63953;SDS011;50128;52.094;5.232;2023-02-01T12:45:38;20.3;;;5.4;;
63953;SDS011;50128;52.094;5.232;2023-02-01T12:47:20;18.61;;;4.41;;
63953;SDS011;50128;52.094;5.232;2023-02-01T12:49:05;19.41;;;4.91;;
63953;SDS011;50128;52.094;5.232;2023-02-01T12:50:47;22.5;;;5.11;;
63953;SDS011;50128;52.094;5.232;2023-02-01T12:52:32;16.9;;;5.0;;
63953;SDS011;50128;52.094;5.232;2023-02-01T12:56:12;17.11;;;4.5;;
63953;SDS011;50128;52.094;5.232;2023-02-01T12:57:58;16.8;;;4.5;;
63953;SDS011;50128;52.094;5.232;2023-02-01T12:59:49;19.11;;;5.0;;
63953;SDS011;50128;52.094;5.232;2023-02-01T13:01:34;17.0;;;5.11;;
63953;SDS011;50128;52.094;5.232;2023-02-01T13:05:13;18.11;;;5.2;;
63953;SDS011;50128;52.094;5.232;2023-02-01T13:08:39;22.4;;;5.4;;
63953;SDS011;50128;52.094;5.232;2023-02-01T13:10:24;18.5;;;4.91;;
63953;SDS011;50128;52.094;5.232;2023-02-01T13:12:10;17.41;;;4.5;;
63953;SDS011;50128;52.094;5.232;2023-02-01T13:13:54;18.41;;;5.11;;
63953;SDS011;50128;52.094;5.232;2023-02-01T13:15:38;18.8;;;4.7;;
63953;SDS011;50128;52.094;5.232;2023-02-01T13:19:02;20.5;;;5.5;;
63953;SDS011;50128;52.094;5.232;2023-02-01T13:20:53;21.0;;;4.91;;
63953;SDS011;50128;52.094;5.232;2023-02-01T13:22:43;20.3;;;4.8;;